Terminal Aerodrome Forecast
Issued by NWS

Home | Current Version | Previous Version | Text Only | Print | Product List | Glossary Off
Versions: 1 2 3 4 5 6 7 8 9 10 11 12 13 14 15 16 17 18 19 20 21

070
FTUS43 KIWX 072339
TAFSBN
TAF
KSBN 072339Z 0800/0824 22010KT P6SM SCT035 BKN100
     FM080400 24007KT P6SM BKN050
     FM081100 27006KT 4SM BR BKN020
     FM081400 27008KT 3SM -SHSN OVC015
      TEMPO 0814/0817 2SM -SHSN
     FM081800 30013KT 5SM -SHSN OVC020=

USA.gov is the U.S. government's official web portal to all federal, state and local government web resources and services.